Time;durP1;ratioP1;P1;durP2;ratioP2;P2;SDS_P1;SDS_P2;PMS_P1;PMS_P2;Temp;Humidity;BMP_temperature;BMP_pressure;BME280_temperature;BME280_humidity;BME280_pressure;Samples;Min_cycle;Max_cycle;Signal;HPM_P1;HPM_P2
2023/08/12 00:02:28;;;;;;;8.90;5.20;;;;;;;;;;104304;1289;544986;-78
2023/08/12 00:06:07;;;;;;;11.80;6.30;;;;;;;;;;103779;1300;544973;-80
2023/08/12 00:09:44;;;;;;;11.40;6.00;;;;;;;;;;103674;1292;545009;-80
2023/08/12 00:13:29;;;;;;;10.40;5.80;;;;;;;;;;103330;1294;547902;-78
2023/08/12 00:17:00;;;;;;;10.10;5.30;;;;;;;;;;103759;1291;545455;-83
2023/08/12 00:20:38;;;;;;;9.80;5.10;;;;;;;;;;103788;1292;545018;-74
2023/08/12 00:24:22;;;;;;;8.60;5.40;;;;;;;;;;103642;1292;547784;-78
2023/08/12 00:27:54;;;;;;;11.50;6.10;;;;;;;;;;103638;1291;544901;-74
2023/08/12 00:31:32;;;;;;;10.30;5.90;;;;;;;;;;103809;1292;544772;-80
2023/08/12 00:35:16;;;;;;;10.10;5.30;;;;;;;;;;103613;1292;548011;-82
2023/08/12 00:38:53;;;;;;;10.40;5.20;;;;;;;;;;103618;1292;547969;-80
2023/08/12 00:42:50;;;;;;;9.60;5.60;;;;;;;;;;103936;1294;548370;-83
2023/08/12 00:46:02;;;;;;;9.40;5.60;;;;;;;;;;103797;1292;545650;-75
2023/08/12 00:49:43;;;;;;;10.60;5.10;;;;;;;;;;104483;1282;545508;-82
2023/08/12 00:53:23;;;;;;;11.90;5.60;;;;;;;;;;103918;1289;545366;-75
2023/08/12 00:57:01;;;;;;;11.70;6.20;;;;;;;;;;103792;1291;545395;-75
2023/08/12 01:00:40;;;;;;;9.80;6.20;;;;;;;;;;104006;1288;544999;-74
2023/08/12 01:04:18;;;;;;;12.80;6.50;;;;;;;;;;103784;1291;545018;-74
2023/08/12 01:07:56;;;;;;;8.60;5.30;;;;;;;;;;103937;1290;544994;-81
2023/08/12 01:11:46;;;;;;;11.70;6.20;;;;;;;;;;103364;1295;547779;-74
2023/08/12 01:15:14;;;;;;;10.50;5.80;;;;;;;;;;103845;1292;545048;-75
2023/08/12 01:18:53;;;;;;;12.30;6.50;;;;;;;;;;103915;1292;545470;-74
2023/08/12 01:22:32;;;;;;;9.70;5.80;;;;;;;;;;104471;1285;545045;-80
2023/08/12 01:26:11;;;;;;;10.60;6.00;;;;;;;;;;103801;1295;545963;-75
2023/08/12 01:29:51;;;;;;;10.20;6.30;;;;;;;;;;103749;1292;544868;-79
2023/08/12 01:33:39;;;;;;;10.00;6.10;;;;;;;;;;103779;1294;544807;-81
2023/08/12 01:37:27;;;;;;;11.10;6.10;;;;;;;;;;103770;1289;545061;-80
2023/08/12 01:41:10;;;;;;;10.90;5.80;;;;;;;;;;103761;1291;544745;-78
2023/08/12 01:44:49;;;;;;;11.20;6.30;;;;;;;;;;103588;1292;548553;-80
2023/08/12 01:48:22;;;;;;;11.80;7.10;;;;;;;;;;103936;1288;544820;-80
2023/08/12 01:52:07;;;;;;;11.80;7.00;;;;;;;;;;103581;1292;547786;-81
2023/08/12 01:55:38;;;;;;;10.70;6.50;;;;;;;;;;103663;1304;544999;-80
2023/08/12 01:59:16;;;;;;;11.00;6.60;;;;;;;;;;103803;1292;545772;-81
2023/08/12 02:02:55;;;;;;;9.90;6.10;;;;;;;;;;103800;1292;545467;-74
2023/08/12 02:06:33;;;;;;;10.10;6.00;;;;;;;;;;103796;1292;545925;-76
2023/08/12 02:10:11;;;;;;;10.40;5.50;;;;;;;;;;103867;1292;544952;-77
2023/08/12 02:13:49;;;;;;;11.00;6.40;;;;;;;;;;104704;1281;545489;-83
2023/08/12 02:17:34;;;;;;;10.60;5.90;;;;;;;;;;103639;1292;547786;-74
2023/08/12 02:21:05;;;;;;;9.80;5.90;;;;;;;;;;103782;1292;545159;-76
2023/08/12 02:24:43;;;;;;;11.10;5.40;;;;;;;;;;103811;1291;545428;-82
2023/08/12 02:28:21;;;;;;;10.20;5.30;;;;;;;;;;103640;1291;544931;-81
2023/08/12 02:31:59;;;;;;;11.70;5.40;;;;;;;;;;103786;1291;545774;-81
2023/08/12 02:35:38;;;;;;;10.80;5.40;;;;;;;;;;104195;1289;545361;-82
2023/08/12 02:39:16;;;;;;;8.80;5.00;;;;;;;;;;103858;1292;546322;-74
2023/08/12 02:42:54;;;;;;;9.90;5.80;;;;;;;;;;103782;1289;545941;-75
2023/08/12 02:46:32;;;;;;;10.10;5.50;;;;;;;;;;103749;1291;544837;-83
2023/08/12 02:50:13;;;;;;;10.10;5.90;;;;;;;;;;103978;1289;544833;-79
2023/08/12 02:53:54;;;;;;;10.30;5.80;;;;;;;;;;103784;1288;547828;-82
2023/08/12 02:57:25;;;;;;;10.20;5.80;;;;;;;;;;104263;1283;545050;-75
2023/08/12 03:01:09;;;;;;;10.60;5.90;;;;;;;;;;103426;1292;548079;-83
2023/08/12 03:04:50;;;;;;;10.60;5.60;;;;;;;;;;103381;1297;546259;-81
2023/08/12 03:08:22;;;;;;;11.80;6.10;;;;;;;;;;104090;1286;545450;-82
2023/08/12 03:11:55;;;;;;;10.80;6.60;;;;;;;;;;103953;1288;544786;-77
2023/08/12 03:15:34;;;;;;;11.40;6.40;;;;;;;;;;103655;1291;544758;-75
2023/08/12 03:19:16;;;;;;;11.50;6.30;;;;;;;;;;103800;1289;545053;-74
2023/08/12 03:22:49;;;;;;;11.30;6.80;;;;;;;;;;103801;1291;544818;-81
2023/08/12 03:26:28;;;;;;;13.50;8.00;;;;;;;;;;103854;1289;544800;-74
2023/08/12 03:30:13;;;;;;;13.70;8.10;;;;;;;;;;103490;1291;547951;-80
2023/08/12 03:33:44;;;;;;;13.70;8.00;;;;;;;;;;103794;1292;545128;-80
2023/08/12 03:37:23;;;;;;;13.70;8.00;;;;;;;;;;104249;1286;545802;-74
2023/08/12 03:41:08;;;;;;;14.60;8.90;;;;;;;;;;103753;1289;544810;-82
2023/08/12 03:44:43;;;;;;;13.40;8.40;;;;;;;;;;103833;1292;545415;-75
2023/08/12 03:48:25;;;;;;;9.80;6.50;;;;;;;;;;104721;1289;545905;-81
2023/08/12 03:51:58;;;;;;;10.60;6.20;;;;;;;;;;103780;1291;545383;-83
2023/08/12 03:55:37;;;;;;;10.80;7.00;;;;;;;;;;103808;1291;546328;-76
2023/08/12 03:59:15;;;;;;;11.40;6.70;;;;;;;;;;104096;1291;545175;-79
2023/08/12 04:02:57;;;;;;;11.90;6.10;;;;;;;;;;104139;1289;545231;-74
2023/08/12 04:06:31;;;;;;;9.20;4.50;;;;;;;;;;103823;1289;544825;-74
2023/08/12 04:10:12;;;;;;;9.30;4.50;;;;;;;;;;103768;1292;544951;-82
2023/08/12 04:13:50;;;;;;;8.20;4.90;;;;;;;;;;103840;1290;545854;-83
2023/08/12 04:17:23;;;;;;;9.70;4.90;;;;;;;;;;104222;1285;545251;-83
2023/08/12 04:21:08;;;;;;;7.90;3.70;;;;;;;;;;103629;1301;547874;-83
2023/08/12 04:24:43;;;;;;;8.60;3.40;;;;;;;;;;103813;1289;545567;-83
2023/08/12 04:28:16;;;;;;;8.30;3.20;;;;;;;;;;103826;1289;544925;-81
2023/08/12 04:32:04;;;;;;;7.40;3.40;;;;;;;;;;103644;1292;548123;-78
2023/08/12 04:35:32;;;;;;;7.10;3.10;;;;;;;;;;103820;1291;545077;-83
2023/08/12 04:39:15;;;;;;;6.90;3.40;;;;;;;;;;103906;1290;545249;-83
2023/08/12 04:42:48;;;;;;;9.30;3.70;;;;;;;;;;103676;1291;545329;-75
2023/08/12 04:46:30;;;;;;;6.30;3.50;;;;;;;;;;103764;1292;545022;-83
2023/08/12 04:50:10;;;;;;;7.20;2.70;;;;;;;;;;103955;1289;547958;-82
2023/08/12 04:53:47;;;;;;;7.00;3.30;;;;;;;;;;103680;1291;548078;-76
2023/08/12 04:57:29;;;;;;;8.70;3.30;;;;;;;;;;103850;1286;548577;-76
2023/08/12 05:01:07;;;;;;;6.30;3.10;;;;;;;;;;103686;1289;547859;-78
2023/08/12 05:04:47;;;;;;;6.60;3.20;;;;;;;;;;103500;1292;545803;-76
2023/08/12 05:08:11;;;;;;;6.80;3.00;;;;;;;;;;104416;1285;544994;-80
2023/08/12 05:11:59;;;;;;;6.60;2.50;;;;;;;;;;103668;1292;547880;-78
2023/08/12 05:15:31;;;;;;;7.10;3.30;;;;;;;;;;103751;1295;545505;-78
2023/08/12 05:19:08;;;;;;;7.10;3.10;;;;;;;;;;103778;1289;544787;-81
2023/08/12 05:22:46;;;;;;;6.90;3.40;;;;;;;;;;103993;1292;545004;-82
2023/08/12 05:26:39;;;;;;;6.80;2.70;;;;;;;;;;103686;1288;547887;-82
2023/08/12 05:29:57;;;;;;;8.50;3.00;;;;;;;;;;104281;1286;545057;-77
2023/08/12 05:33:35;;;;;;;6.90;3.30;;;;;;;;;;103834;1301;545591;-74
2023/08/12 05:37:13;;;;;;;6.90;3.50;;;;;;;;;;103855;1292;544752;-82
2023/08/12 05:41:07;;;;;;;7.90;3.20;;;;;;;;;;103758;1288;546292;-83
2023/08/12 05:44:32;;;;;;;9.10;3.70;;;;;;;;;;103773;1289;545624;-80
2023/08/12 05:48:10;;;;;;;6.70;2.80;;;;;;;;;;103809;1291;545650;-79
2023/08/12 05:51:43;;;;;;;7.70;3.00;;;;;;;;;;103735;1291;544968;-76
2023/08/12 05:55:25;;;;;;;7.20;3.00;;;;;;;;;;103767;1289;545178;-74
2023/08/12 05:59:03;;;;;;;6.50;3.20;;;;;;;;;;103905;1289;545051;-80
2023/08/12 06:02:40;;;;;;;6.10;3.10;;;;;;;;;;103922;1292;545364;-78
2023/08/12 06:06:17;;;;;;;7.40;2.40;;;;;;;;;;103941;1294;545043;-82
2023/08/12 06:09:57;;;;;;;8.70;3.10;;;;;;;;;;103951;1288;547997;-75
2023/08/12 06:13:32;;;;;;;10.40;3.70;;;;;;;;;;103965;1291;546010;-83
2023/08/12 06:17:09;;;;;;;10.00;3.90;;;;;;;;;;103817;1291;545077;-78
2023/08/12 06:31:35;;;;;;;7.60;2.80;;;;;;;;;;104628;1285;553647;-80
2023/08/12 06:44:59;;;;;;;7.80;2.70;;;;;;;;;;104743;1285;550042;-81
2023/08/12 06:47:42;;;;;;;7.10;3.30;;;;;;;;;;103786;1293;545074;-74
2023/08/12 06:51:18;;;;;;;7.40;3.40;;;;;;;;;;104133;1289;544818;-82
2023/08/12 06:54:56;;;;;;;9.00;3.80;;;;;;;;;;103857;1288;544953;-75
2023/08/12 06:58:33;;;;;;;8.60;3.90;;;;;;;;;;104044;1292;545070;-74
2023/08/12 07:02:11;;;;;;;8.00;3.10;;;;;;;;;;103756;1290;545938;-73
2023/08/12 07:05:48;;;;;;;7.90;3.50;;;;;;;;;;103756;1292;545411;-79
2023/08/12 07:09:26;;;;;;;9.00;3.10;;;;;;;;;;104074;1289;544988;-81
2023/08/12 07:13:12;;;;;;;11.00;3.30;;;;;;;;;;104695;1282;548012;-80
2023/08/12 07:16:41;;;;;;;7.70;3.30;;;;;;;;;;103852;1289;544732;-77
2023/08/12 07:20:40;;;;;;;6.90;2.60;;;;;;;;;;104051;1288;545471;-75
2023/08/12 07:23:56;;;;;;;7.20;2.80;;;;;;;;;;103779;1289;544881;-81
2023/08/12 07:27:33;;;;;;;8.90;2.60;;;;;;;;;;103921;1291;544998;-78
2023/08/12 07:31:10;;;;;;;6.40;2.50;;;;;;;;;;103949;1292;544915;-78
2023/08/12 07:34:48;;;;;;;6.80;2.90;;;;;;;;;;103752;1288;545658;-76
2023/08/12 07:38:25;;;;;;;5.30;2.50;;;;;;;;;;103851;1289;544816;-75
2023/08/12 07:42:12;;;;;;;6.50;2.60;;;;;;;;;;103999;1286;545393;-77
2023/08/12 07:45:40;;;;;;;6.50;2.50;;;;;;;;;;103809;1295;545367;-77
2023/08/12 08:00:02;;;;;;;5.60;2.90;;;;;;;;;;106450;1265;549900;-80
2023/08/12 08:13:19;;;;;;;5.70;2.50;;;;;;;;;;104487;1285;549609;-79
2023/08/12 08:16:07;;;;;;;5.10;2.60;;;;;;;;;;104188;1288;544935;-77
2023/08/12 08:19:49;;;;;;;8.30;2.40;;;;;;;;;;103875;1289;544978;-81
2023/08/12 08:23:26;;;;;;;6.50;2.30;;;;;;;;;;104064;1293;545304;-77
2023/08/12 08:27:14;;;;;;;6.30;2.50;;;;;;;;;;103871;1289;544915;-79
2023/08/12 08:30:41;;;;;;;6.00;2.10;;;;;;;;;;103828;1296;545003;-75
2023/08/12 08:34:15;;;;;;;5.40;2.10;;;;;;;;;;103755;1300;545701;-74
2023/08/12 08:37:57;;;;;;;6.50;2.60;;;;;;;;;;103511;1291;544965;-74
2023/08/12 08:41:32;;;;;;;5.10;2.00;;;;;;;;;;103539;1293;545710;-76
2023/08/12 08:45:14;;;;;;;6.00;2.40;;;;;;;;;;103792;1290;545063;-75
2023/08/12 08:48:48;;;;;;;5.30;2.40;;;;;;;;;;103857;1289;545023;-78
2023/08/12 08:52:31;;;;;;;6.00;2.30;;;;;;;;;;104124;1287;544901;-79
2023/08/12 08:56:13;;;;;;;5.30;2.00;;;;;;;;;;103701;1292;547964;-74
2023/08/12 08:59:45;;;;;;;5.30;2.40;;;;;;;;;;103797;1294;545918;-73
2023/08/12 09:03:29;;;;;;;4.30;1.70;;;;;;;;;;103341;1297;547807;-76
2023/08/12 09:17:22;;;;;;;5.50;2.30;;;;;;;;;;104674;1292;549392;-81
2023/08/12 09:20:14;;;;;;;6.20;2.30;;;;;;;;;;103593;1291;545375;-74
2023/08/12 09:23:52;;;;;;;5.50;2.30;;;;;;;;;;103650;1295;544854;-81
2023/08/12 09:27:30;;;;;;;5.00;2.50;;;;;;;;;;104200;1292;545439;-79
2023/08/12 09:31:07;;;;;;;4.40;2.00;;;;;;;;;;103986;1290;544781;-76
2023/08/12 09:34:48;;;;;;;4.30;2.20;;;;;;;;;;104125;1289;545268;-78
2023/08/12 09:38:17;;;;;;;4.80;2.20;;;;;;;;;;104818;1292;545640;-74
2023/08/12 09:42:05;;;;;;;7.40;2.10;;;;;;;;;;104458;1291;547701;-77
2023/08/12 09:45:37;;;;;;;4.80;2.10;;;;;;;;;;104991;1286;544994;-78
2023/08/12 09:49:16;;;;;;;4.90;2.20;;;;;;;;;;104766;1288;544983;-73
2023/08/12 09:52:52;;;;;;;6.00;2.70;;;;;;;;;;104502;1290;545843;-77
2023/08/12 09:56:36;;;;;;;5.90;2.40;;;;;;;;;;103782;1291;546080;-74
2023/08/12 10:00:03;;;;;;;5.30;2.00;;;;;;;;;;103796;1290;545010;-79
2023/08/12 10:03:53;;;;;;;4.80;2.40;;;;;;;;;;103662;1290;547758;-76
2023/08/12 10:07:31;;;;;;;4.30;2.20;;;;;;;;;;103496;1291;548177;-81
2023/08/12 10:11:02;;;;;;;5.20;2.10;;;;;;;;;;103813;1289;544956;-77
2023/08/12 10:14:39;;;;;;;6.80;2.30;;;;;;;;;;103791;1291;546238;-81
2023/08/12 10:18:14;;;;;;;4.70;2.60;;;;;;;;;;103821;1290;544802;-80
2023/08/12 10:21:59;;;;;;;4.20;1.90;;;;;;;;;;103958;1300;545059;-75
2023/08/12 10:25:34;;;;;;;5.40;1.90;;;;;;;;;;103982;1290;545428;-77
2023/08/12 10:29:12;;;;;;;5.30;2.30;;;;;;;;;;104003;1292;544788;-78
2023/08/12 10:32:54;;;;;;;4.30;2.30;;;;;;;;;;103849;1289;545289;-79
2023/08/12 10:36:28;;;;;;;5.40;2.10;;;;;;;;;;103785;1289;545055;-87
2023/08/12 10:40:20;;;;;;;5.70;2.30;;;;;;;;;;104148;1286;545121;-76
2023/08/12 10:44:05;;;;;;;3.90;1.90;;;;;;;;;;104164;1286;544837;-76
2023/08/12 10:47:46;;;;;;;4.90;1.80;;;;;;;;;;103997;1289;545778;-77
2023/08/12 10:51:47;;;;;;;5.90;1.90;;;;;;;;;;104065;1292;544781;-75
2023/08/12 10:55:21;;;;;;;4.10;1.80;;;;;;;;;;103787;1292;545297;-77
2023/08/12 10:58:46;;;;;;;5.20;1.70;;;;;;;;;;103760;1295;544798;-74
2023/08/12 11:02:32;;;;;;;4.00;2.00;;;;;;;;;;103772;1292;545234;-76
2023/08/12 11:05:59;;;;;;;4.10;2.20;;;;;;;;;;103885;1293;545568;-78
2023/08/12 11:09:59;;;;;;;4.30;2.20;;;;;;;;;;103799;1292;547765;-81
2023/08/12 11:13:13;;;;;;;5.40;1.90;;;;;;;;;;104023;1292;544910;-82
2023/08/12 11:16:52;;;;;;;4.40;1.90;;;;;;;;;;103846;1292;545283;-73
2023/08/12 11:20:29;;;;;;;5.50;2.10;;;;;;;;;;103613;1291;544771;-80
2023/08/12 11:24:06;;;;;;;4.30;1.70;;;;;;;;;;104100;1288;544981;-73
2023/08/12 11:27:43;;;;;;;4.10;2.00;;;;;;;;;;103785;1294;545444;-74
2023/08/12 11:31:21;;;;;;;4.10;1.80;;;;;;;;;;104034;1289;545154;-73
2023/08/12 11:34:57;;;;;;;4.40;1.90;;;;;;;;;;103713;1290;544926;-79
2023/08/12 11:38:35;;;;;;;3.90;2.00;;;;;;;;;;104088;1291;545031;-76
2023/08/12 11:42:16;;;;;;;3.50;1.80;;;;;;;;;;103732;1289;545734;-81
2023/08/12 11:45:46;;;;;;;4.80;2.10;;;;;;;;;;103942;1290;545651;-77
2023/08/12 11:49:28;;;;;;;4.10;2.00;;;;;;;;;;103761;1289;544787;-73
2023/08/12 11:53:06;;;;;;;5.40;2.20;;;;;;;;;;103894;1288;544850;-76
2023/08/12 11:56:43;;;;;;;4.20;1.80;;;;;;;;;;103654;1305;544998;-72
2023/08/12 12:00:21;;;;;;;4.20;1.50;;;;;;;;;;103848;1291;544974;-72
2023/08/12 12:04:01;;;;;;;3.50;1.80;;;;;;;;;;103804;1292;544597;-72
2023/08/12 12:07:36;;;;;;;3.80;1.50;;;;;;;;;;104101;1289;545291;-71
2023/08/12 12:11:13;;;;;;;5.10;1.80;;;;;;;;;;103734;1289;544735;-77
2023/08/12 12:14:51;;;;;;;3.60;1.80;;;;;;;;;;103783;1290;544850;-74
2023/08/12 12:18:28;;;;;;;4.70;1.70;;;;;;;;;;104029;1290;544779;-82
2023/08/12 12:22:05;;;;;;;3.70;1.40;;;;;;;;;;103730;1289;544781;-79
2023/08/12 12:25:48;;;;;;;3.60;1.70;;;;;;;;;;103666;1292;547979;-76
2023/08/12 12:29:26;;;;;;;3.30;1.70;;;;;;;;;;103740;1291;547981;-76
2023/08/12 12:32:58;;;;;;;6.40;2.30;;;;;;;;;;103792;1289;545551;-77
2023/08/12 12:36:41;;;;;;;3.80;1.70;;;;;;;;;;103595;1291;545879;-78
2023/08/12 12:40:13;;;;;;;4.30;1.60;;;;;;;;;;103770;1289;545061;-87
2023/08/12 12:43:46;;;;;;;5.50;1.60;;;;;;;;;;103921;1289;545587;-74
2023/08/12 12:47:25;;;;;;;3.80;1.60;;;;;;;;;;103783;1289;545063;-79
2023/08/12 12:51:03;;;;;;;3.70;1.90;;;;;;;;;;104458;1283;544974;-73
2023/08/12 12:54:51;;;;;;;4.20;2.20;;;;;;;;;;103584;1292;548142;-76
2023/08/12 12:58:23;;;;;;;6.70;2.30;;;;;;;;;;103848;1289;545028;-73
2023/08/12 13:02:00;;;;;;;6.90;1.90;;;;;;;;;;103894;1289;545054;-80
2023/08/12 13:05:37;;;;;;;4.00;2.00;;;;;;;;;;104114;1289;545149;-79
2023/08/12 13:09:15;;;;;;;4.70;1.90;;;;;;;;;;103897;1289;545367;-80
2023/08/12 13:12:52;;;;;;;4.80;2.10;;;;;;;;;;104300;1289;544988;-74
2023/08/12 13:16:30;;;;;;;4.60;1.60;;;;;;;;;;103784;1292;545075;-80
2023/08/12 13:20:08;;;;;;;5.40;2.00;;;;;;;;;;103865;1291;545898;-74
2023/08/12 13:23:45;;;;;;;4.30;1.80;;;;;;;;;;103551;1291;544814;-74
2023/08/12 13:27:23;;;;;;;4.10;1.60;;;;;;;;;;103775;1294;544978;-79
2023/08/12 13:30:56;;;;;;;5.30;1.60;;;;;;;;;;103892;1291;544772;-75
2023/08/12 13:34:38;;;;;;;5.20;1.70;;;;;;;;;;103808;1293;544772;-74
2023/08/12 13:38:16;;;;;;;4.30;2.00;;;;;;;;;;104241;1289;544638;-80
2023/08/12 13:41:54;;;;;;;5.20;2.30;;;;;;;;;;103853;1289;544761;-81
2023/08/12 13:45:31;;;;;;;4.40;1.90;;;;;;;;;;103993;1289;544872;-81
2023/08/12 13:49:08;;;;;;;4.40;1.90;;;;;;;;;;104023;1290;544632;-82
2023/08/12 13:52:47;;;;;;;6.70;2.50;;;;;;;;;;103794;1288;545270;-75
2023/08/12 13:56:23;;;;;;;4.90;1.80;;;;;;;;;;103856;1292;544817;-74
2023/08/12 14:00:01;;;;;;;5.40;1.60;;;;;;;;;;103650;1291;545398;-78
2023/08/12 14:03:44;;;;;;;4.20;2.00;;;;;;;;;;103576;1292;547979;-73
2023/08/12 14:17:38;;;;;;;7.20;2.70;;;;;;;;;;104709;1283;550308;-75
2023/08/12 14:20:29;;;;;;;5.90;2.50;;;;;;;;;;103769;1291;544790;-73
2023/08/12 14:24:07;;;;;;;4.40;1.90;;;;;;;;;;104116;1289;544943;-72
2023/08/12 14:27:44;;;;;;;5.40;2.20;;;;;;;;;;103817;1289;545770;-77
2023/08/12 14:31:22;;;;;;;4.40;1.60;;;;;;;;;;104044;1288;544779;-80
2023/08/12 14:34:59;;;;;;;5.40;1.90;;;;;;;;;;103517;1293;545001;-80
2023/08/12 14:38:37;;;;;;;5.00;2.10;;;;;;;;;;103770;1292;545603;-74
2023/08/12 14:42:11;;;;;;;8.30;3.60;;;;;;;;;;103951;1289;544825;-75
2023/08/12 14:45:49;;;;;;;6.00;2.20;;;;;;;;;;103641;1292;545019;-81
2023/08/12 14:49:27;;;;;;;5.40;2.00;;;;;;;;;;104386;1283;544718;-84
2023/08/12 14:53:09;;;;;;;6.70;2.00;;;;;;;;;;103861;1292;545017;-73
2023/08/12 14:56:46;;;;;;;6.20;2.10;;;;;;;;;;103762;1292;545001;-77
2023/08/12 15:00:24;;;;;;;5.90;2.30;;;;;;;;;;103897;1292;544857;-76
2023/08/12 15:04:01;;;;;;;7.90;2.60;;;;;;;;;;103887;1290;545399;-73
2023/08/12 15:07:39;;;;;;;7.50;2.20;;;;;;;;;;103742;1290;545591;-80
2023/08/12 15:11:12;;;;;;;6.70;2.30;;;;;;;;;;103543;1296;545481;-76
2023/08/12 15:14:54;;;;;;;6.70;2.50;;;;;;;;;;103764;1301;545431;-74
2023/08/12 15:18:31;;;;;;;6.20;2.70;;;;;;;;;;103809;1289;545036;-74
2023/08/12 15:22:09;;;;;;;6.20;2.10;;;;;;;;;;103773;1290;544778;-73
2023/08/12 15:25:52;;;;;;;6.30;2.10;;;;;;;;;;103590;1295;547967;-75
2023/08/12 15:29:24;;;;;;;6.20;2.50;;;;;;;;;;103712;1289;546206;-75
2023/08/12 15:33:04;;;;;;;5.90;2.10;;;;;;;;;;103611;1289;548231;-74
2023/08/12 15:36:41;;;;;;;6.40;2.50;;;;;;;;;;103756;1292;544860;-80
2023/08/12 15:40:22;;;;;;;5.70;2.50;;;;;;;;;;104393;1285;547935;-77
2023/08/12 15:43:50;;;;;;;6.30;2.60;;;;;;;;;;104495;1286;545759;-73
2023/08/12 15:47:35;;;;;;;5.80;2.00;;;;;;;;;;103792;1292;544962;-74
2023/08/12 15:51:10;;;;;;;4.90;2.50;;;;;;;;;;103964;1291;545198;-78
2023/08/12 15:54:47;;;;;;;5.00;2.10;;;;;;;;;;103633;1291;545209;-76
2023/08/12 15:58:24;;;;;;;6.00;2.20;;;;;;;;;;103776;1293;544950;-76
2023/08/12 16:02:02;;;;;;;6.00;2.40;;;;;;;;;;103704;1292;544930;-73
2023/08/12 16:05:40;;;;;;;5.80;2.00;;;;;;;;;;103978;1291;544979;-80
2023/08/12 16:09:17;;;;;;;5.00;2.10;;;;;;;;;;104448;1288;544940;-81
2023/08/12 16:12:54;;;;;;;6.00;2.20;;;;;;;;;;103936;1292;544903;-74
2023/08/12 16:16:32;;;;;;;4.70;1.70;;;;;;;;;;103799;1291;546177;-75
2023/08/12 16:20:12;;;;;;;7.50;2.40;;;;;;;;;;103937;1288;544991;-73
2023/08/12 16:23:47;;;;;;;7.20;2.40;;;;;;;;;;103704;1292;545441;-79
2023/08/12 16:27:24;;;;;;;8.30;2.90;;;;;;;;;;103952;1291;546003;-73
2023/08/12 16:31:07;;;;;;;7.40;2.90;;;;;;;;;;104421;1282;546140;-73
2023/08/12 16:34:39;;;;;;;7.90;3.40;;;;;;;;;;103867;1289;545623;-73
2023/08/12 16:38:18;;;;;;;6.90;3.20;;;;;;;;;;104410;1288;544981;-73
2023/08/12 16:41:54;;;;;;;7.50;3.30;;;;;;;;;;103886;1291;544980;-73
2023/08/12 16:45:37;;;;;;;6.80;2.60;;;;;;;;;;103541;1292;546178;-78
2023/08/12 16:49:09;;;;;;;6.70;2.60;;;;;;;;;;103868;1289;544787;-73
2023/08/12 16:52:46;;;;;;;8.10;2.60;;;;;;;;;;103986;1288;544937;-72
2023/08/12 16:56:24;;;;;;;9.20;3.20;;;;;;;;;;103937;1292;545079;-73
2023/08/12 17:00:08;;;;;;;7.30;3.10;;;;;;;;;;103594;1293;546496;-78
2023/08/12 17:03:39;;;;;;;7.30;3.10;;;;;;;;;;103860;1289;546474;-73
2023/08/12 17:07:22;;;;;;;9.50;2.60;;;;;;;;;;104035;1296;547993;-78
2023/08/12 17:10:50;;;;;;;7.60;2.70;;;;;;;;;;103751;1289;545721;-73
2023/08/12 17:14:32;;;;;;;9.60;3.20;;;;;;;;;;103815;1290;544780;-81
2023/08/12 17:18:09;;;;;;;8.20;3.30;;;;;;;;;;103758;1292;544967;-78
2023/08/12 17:21:47;;;;;;;9.70;3.40;;;;;;;;;;103643;1292;544849;-82
2023/08/12 17:25:24;;;;;;;9.40;3.40;;;;;;;;;;103795;1291;545202;-78
2023/08/12 17:29:01;;;;;;;8.90;3.90;;;;;;;;;;103803;1288;545056;-78
2023/08/12 17:32:39;;;;;;;8.80;3.60;;;;;;;;;;104029;1290;545730;-82
2023/08/12 17:36:22;;;;;;;8.50;4.00;;;;;;;;;;103659;1289;548203;-79
2023/08/12 17:39:59;;;;;;;9.70;4.00;;;;;;;;;;103766;1294;547792;-75
2023/08/12 17:43:31;;;;;;;9.30;4.10;;;;;;;;;;103770;1292;544626;-75
2023/08/12 17:47:16;;;;;;;11.00;3.60;;;;;;;;;;103501;1292;547774;-76
2023/08/12 17:50:46;;;;;;;10.80;4.00;;;;;;;;;;103762;1292;544751;-74
2023/08/12 17:54:28;;;;;;;10.80;4.30;;;;;;;;;;104000;1287;545427;-75
2023/08/12 17:58:07;;;;;;;15.20;4.20;;;;;;;;;;103309;1294;549878;-76
2023/08/12 18:01:35;;;;;;;14.70;7.00;;;;;;;;;;103787;1292;545454;-81
2023/08/12 18:05:17;;;;;;;32.60;24.30;;;;;;;;;;104051;1289;544893;-76
2023/08/12 18:08:50;;;;;;;27.40;18.60;;;;;;;;;;103766;1295;544830;-80
2023/08/12 18:12:28;;;;;;;26.80;16.20;;;;;;;;;;103741;1292;545395;-82
2023/08/12 18:16:10;;;;;;;28.00;16.80;;;;;;;;;;103817;1295;544782;-82
2023/08/12 18:19:48;;;;;;;17.00;10.90;;;;;;;;;;103720;1290;544962;-81
2023/08/12 18:23:21;;;;;;;12.50;5.80;;;;;;;;;;103959;1289;545946;-80
2023/08/12 18:27:04;;;;;;;13.30;5.60;;;;;;;;;;103726;1294;544993;-75
2023/08/12 18:30:41;;;;;;;11.40;5.10;;;;;;;;;;103754;1292;545412;-73
2023/08/12 18:34:18;;;;;;;11.70;5.60;;;;;;;;;;103736;1292;545035;-78
2023/08/12 18:37:55;;;;;;;15.90;8.00;;;;;;;;;;103744;1292;544810;-78
2023/08/12 18:41:33;;;;;;;64.10;36.70;;;;;;;;;;103742;1292;544972;-78
2023/08/12 18:45:11;;;;;;;37.60;21.10;;;;;;;;;;103832;1292;546022;-74
2023/08/12 18:48:54;;;;;;;31.80;16.60;;;;;;;;;;104003;1288;547939;-79
2023/08/12 18:52:26;;;;;;;22.50;11.80;;;;;;;;;;103756;1291;544914;-81
2023/08/12 18:56:03;;;;;;;16.40;8.60;;;;;;;;;;103727;1292;545422;-83
2023/08/12 18:59:37;;;;;;;11.20;6.60;;;;;;;;;;103782;1292;544848;-78
2023/08/12 19:03:15;;;;;;;13.00;6.70;;;;;;;;;;103859;1294;544727;-82
2023/08/12 19:06:53;;;;;;;14.30;8.30;;;;;;;;;;103627;1291;545068;-79
2023/08/12 19:10:31;;;;;;;16.50;9.40;;;;;;;;;;104247;1286;545616;-80
2023/08/12 19:14:14;;;;;;;17.30;9.30;;;;;;;;;;103863;1293;545752;-79
2023/08/12 19:17:51;;;;;;;17.20;7.70;;;;;;;;;;103823;1289;544812;-74
2023/08/12 19:21:28;;;;;;;40.20;21.00;;;;;;;;;;103522;1295;545947;-85
2023/08/12 19:25:06;;;;;;;47.50;23.90;;;;;;;;;;103803;1292;545824;-75
2023/08/12 19:28:43;;;;;;;52.60;27.40;;;;;;;;;;103978;1289;544971;-82
2023/08/12 19:32:21;;;;;;;46.00;23.80;;;;;;;;;;103734;1289;544940;-82
2023/08/12 19:35:58;;;;;;;25.70;13.50;;;;;;;;;;103784;1291;545674;-75
2023/08/12 19:39:36;;;;;;;20.80;10.60;;;;;;;;;;103525;1293;545714;-86
2023/08/12 19:43:13;;;;;;;16.20;8.60;;;;;;;;;;103670;1292;545221;-74
2023/08/12 19:46:51;;;;;;;15.10;7.00;;;;;;;;;;104113;1296;545080;-76
2023/08/12 19:50:36;;;;;;;15.10;6.40;;;;;;;;;;103464;1294;545968;-74
2023/08/12 19:54:05;;;;;;;14.60;6.20;;;;;;;;;;103745;1289;545806;-74
2023/08/12 19:57:43;;;;;;;13.30;6.00;;;;;;;;;;103779;1292;545454;-85
2023/08/12 20:01:16;;;;;;;13.20;6.30;;;;;;;;;;103760;1291;545449;-75
2023/08/12 20:04:58;;;;;;;14.70;6.60;;;;;;;;;;104029;1292;545057;-83
2023/08/12 20:08:35;;;;;;;11.90;5.60;;;;;;;;;;104122;1289;544811;-85
2023/08/12 20:12:13;;;;;;;12.30;5.80;;;;;;;;;;103890;1291;545762;-85
2023/08/12 20:15:57;;;;;;;12.50;5.10;;;;;;;;;;103756;1295;544914;-74
2023/08/12 20:19:28;;;;;;;10.90;5.00;;;;;;;;;;103919;1290;544940;-81
2023/08/12 20:23:02;;;;;;;11.50;5.10;;;;;;;;;;103778;1292;544734;-80
2023/08/12 20:26:49;;;;;;;13.20;5.90;;;;;;;;;;103322;1294;548145;-79
2023/08/12 20:30:27;;;;;;;12.50;6.00;;;;;;;;;;103307;1295;547937;-78
2023/08/12 20:33:59;;;;;;;17.60;7.00;;;;;;;;;;103801;1289;545982;-74
2023/08/12 20:37:36;;;;;;;13.80;6.80;;;;;;;;;;103797;1295;544842;-75
2023/08/12 20:41:10;;;;;;;16.00;6.30;;;;;;;;;;104158;1285;544972;-79
2023/08/12 20:44:48;;;;;;;18.00;6.50;;;;;;;;;;103943;1297;545047;-78
2023/08/12 20:48:32;;;;;;;15.70;7.20;;;;;;;;;;103576;1292;548043;-85
2023/08/12 20:52:07;;;;;;;15.80;9.60;;;;;;;;;;103841;1292;545101;-76
2023/08/12 20:55:44;;;;;;;14.00;9.00;;;;;;;;;;103789;1292;546002;-77
2023/08/12 20:59:22;;;;;;;16.40;9.50;;;;;;;;;;103832;1289;545016;-74
2023/08/12 21:03:00;;;;;;;14.10;8.40;;;;;;;;;;103752;1292;544927;-84
2023/08/12 21:06:37;;;;;;;15.50;7.40;;;;;;;;;;103759;1290;544805;-79
2023/08/12 21:10:20;;;;;;;13.90;7.30;;;;;;;;;;103520;1292;548582;-78
2023/08/12 21:13:58;;;;;;;12.90;7.10;;;;;;;;;;103648;1292;548332;-74
2023/08/12 21:17:29;;;;;;;12.10;6.60;;;;;;;;;;103735;1292;545076;-75
2023/08/12 21:21:07;;;;;;;13.10;6.30;;;;;;;;;;103961;1292;544896;-83
2023/08/12 21:24:44;;;;;;;14.20;5.60;;;;;;;;;;103754;1292;545280;-75
2023/08/12 21:28:18;;;;;;;12.30;5.50;;;;;;;;;;103777;1289;545094;-76
2023/08/12 21:32:05;;;;;;;9.90;4.80;;;;;;;;;;103603;1291;547812;-77
2023/08/12 21:35:37;;;;;;;10.70;4.40;;;;;;;;;;103823;1290;545587;-79
2023/08/12 21:39:17;;;;;;;8.30;4.30;;;;;;;;;;103462;1295;548521;-77
2023/08/12 21:42:52;;;;;;;6.90;3.20;;;;;;;;;;103806;1291;544859;-78
2023/08/12 21:46:30;;;;;;;6.80;3.40;;;;;;;;;;103748;1291;545523;-74
2023/08/12 21:50:07;;;;;;;8.10;3.10;;;;;;;;;;103797;1289;544992;-75
2023/08/12 21:53:46;;;;;;;7.40;2.70;;;;;;;;;;103769;1289;545552;-79
2023/08/12 21:57:28;;;;;;;6.50;2.70;;;;;;;;;;103629;1289;547914;-77